Tiempo atmosférico en la estación meteorológica de Izaña, Santa Cruz de Tenerife (2371 m.)



Fecha
DESCASC
Temp. máxima en grados centígrados (hora)
DESCASC
Temp. mínima en grados centígrados (hora)
DESCASC
Temp. media en grados centígrados
DESCASC
Racha de viento máxima en m/sg (hora)
DESCASC
Velocidad máxima media en intervalos de 10 minutos(hora)
DESCASC
Precipitaciones diarias en mm
DESCASC
Precipitaciones de 00:00 a 06:00 en mm
DESCASC
Precipitaciones de 06:00 a 12:00 en mm
DESCASC
Precipitaciones de 12:00 a 18:00 en mm
DESCASC
Precipitaciones de 18:00 a 24:00 en mm
DESCASC
06-12-2018 9.2 (11:40) 4 (00:20) 6.6 21.94 (02:50) 18.61 (02:20) 0 0 0 0 0
05-12-2018 9 (14:10) 2.8 (07:00) 5.9 20.56 (04:30) 16.39 (03:40) 0 0 0 0 0
04-12-2018 10.6 (13:20) 3.5 (23:59) 7.1 14.17 (11:50) 12.78 (23:59) 0 0 0 0 0
03-12-2018 15.8 (14:30) 7 (00:00) 11.4 14.17 (04:40) 12.5 (03:20) 0 0 0 0 0
02-12-2018 15.2 (13:50) 7.8 (00:00) 11.5 10 (04:20) 9.17 (04:20) 0 0 0 0 0
01-12-2018 15.6 (14:10) 7.7 (00:00) 11.7 5 (23:30) 4.44 (23:20) 0 0 0 0 0
30-11-2018 13 (14:10) 6.4 (00:00) 9.7 6.39 (13:50) 4.72 (17:00) 0 0 0 0 0
29-11-2018 13.9 (13:00) 7.1 (00:00) 10.5 6.94 (07:10) 6.11 (07:10) 0 0 0 0 0
28-11-2018 13.3 (15:30) 5.6 (00:00) 9.5 8.61 (02:40) 7.5 (05:00) 0 0 0 0 0
27-11-2018 10.5 (14:50) 3.7 (00:00) 7.1 9.44 (01:10) 8.33 (01:10) 0 0 0 0 0
25-11-2018 10.5 (14:40) 4.5 (00:00) 7.5 12.22 (00:40) 11.39 (00:30) 0 0 0 0 0
24-11-2018 7.5 (13:50) -0.5 (-00:0) 3.5 18.33 (11:40) 16.94 (12:10) 0 0 0 0 0
23-11-2018 0 (14:40) -3.5 (-00:0) -1.8 22.22 (07:00) 18.61 (07:00) 10.2 3.8 6.4 0 0
22-11-2018 3.9 (01:20) -1.5 (-00:0) 1.2 26.94 (05:50) 21.39 (05:40) 4 0.8 0.4 0.4 2.4
21-11-2018 10.2 (12:20) 3.4 (00:00) 6.8 12.22 (23:10) 10.28 (23:30) 0 0 0 0 0
20-11-2018 9.6 (15:50) 0.3 (00:00) 5 16.11 (00:10) 13.06 (00:10) 0 0 0 0 0
19-11-2018 4.5 (12:40) -2.1 (-00:0) 1.2 19.17 (19:20) 16.67 (04:30) 0 0 0 0 0
18-11-2018 3.3 (14:00) -1.4 (-00:0) 0.9 19.17 (18:40) 15 (08:20) 1 0 0 0.8 0.2
17-11-2018 9.3 (04:40) -1 (-00:0) 4.2 27.5 (14:40) 23.61 (18:50) 12.4 0 0.8 10.2 1.4
16-11-2018 9.3 (16:30) -1.3 (-00:0) 4 20.83 (20:20) 17.5 (21:30) 0 0 0 0 0
15-11-2018 5.9 (13:40) 0.5 (00:00) 3.2 26.94 (13:50) 22.5 (14:20) 2.2 0 2 0.2 0
14-11-2018 7.4 (13:50) -1.6 (-00:0) 2.9 18.06 (21:10) 15.83 (21:00) 0 0 0 0 0
13-11-2018 3.8 (14:50) -0.7 (-00:0) 1.5 21.94 (00:20) 17.22 (00:10) 0.2 0 0.2 0 0
12-11-2018 6.2 (03:50) -0.1 (00:00) 3 24.44 (21:10) 21.39 (21:10) 14.2 0 10.4 3.2 0.6
11-11-2018 11.9 (12:50) 5.1 (00:00) 8.5 16.67 (14:50) 13.89 (23:30) 0 0 0 0 0
10-11-2018 15 (12:30) 7.3 (00:00) 11.2 7.22 (16:40) 5.56 (17:40) 0 0 0 0 0

Gráficas

Temp. máximas Temp. mínimas Temp. medias Precipitaciones Rachas de viento máximas Velocidades máximas media en intervalos de 10 minutos

Datos horarios

Fecha y hora oficial Temperatura (ºC) Velocidad del viento (km/h) Dirección del viento Racha (km/h) Dirección de racha Precipitación (mm) Presión (hPa) Tendencia (hPa) Humedad (%)
2018-12-09 23:00:00 8.1 5 Este 10 Este 0 776.4 0.6 14
2018-12-09 22:00:00 7.9 8 Sudeste 14 Sudeste 0 776.2 0.8 18
2018-12-09 21:00:00 8.1 11 Este 14 Este 0 775.9 0.8 16
2018-12-09 20:00:00 8.3 8 Este 9 Este 0 775.8 1 18
2018-12-09 19:00:00 8.3 5 Este 10 Norte 0 775.4 0.8 12
2018-12-09 18:00:00 8.9 5 Norte 8 Sudoeste 0 775.1 0.5 27
2018-12-09 17:00:00 11 4 Oeste 19 Sudoeste 0 774.8 0 34
2018-12-09 16:00:00 11 14 Sudoeste 21 Sudoeste 0 774.6 -0.9 37
2018-12-09 15:00:00 12.5 9 Sudoeste 30 Sudoeste 0 774.6 -1.3 34
2018-12-09 14:00:00 11.9 22 Sudoeste 36 Sur 0 774.8 -1.4 31
2018-12-09 13:00:00 12.2 24 Sur 41 Sur 0 775.5 -0.4 25
2018-12-09 12:00:00 12 28 Sur 43 Sur 0 775.9 0.4 19
2018-12-09 11:00:00 11.6 29 Sudoeste 38 Sudoeste 0 776.2 1 19
2018-12-09 10:00:00 11.6 28 Sudoeste 34 Sudoeste 0 775.9 0.9 14
2018-12-09 09:00:00 10.1 23 Sudoeste 27 Sudoeste 0 775.5 1 7
2018-12-09 08:00:00 8.3 22 Sudoeste 26 Sudoeste 0 775.2 0.6 8
2018-12-09 07:00:00 8.1 24 Sudoeste 29 Sudoeste 0 775 0.1 9
2018-12-09 06:00:00 8.8 25 Sudoeste 30 Sudoeste 0 774.5 -0.5 6
2018-12-09 05:00:00 8.9 24 Sudoeste 28 Sudoeste 0 774.6 -0.5 7
2018-12-09 04:00:00 8.9 22 Sudoeste 27 Sudoeste 0 774.9 -0.5 7
2018-12-09 03:00:00 8.8 23 Sudoeste 28 Sur 0 775 -0.6 8
2018-12-09 02:00:00 9.2 23 Sur 27 Sur 0 775.1 -0.7 7
2018-12-09 01:00:00 9.1 21 Sur 24 Sur 0 775.4 -0.3 5
2018-12-09 00:00:00 9 20 Sur 25 Sur 0 775.6 0.1 5
2018-12-08 23:00:00 9.6 23 Sur 29 Sur 0 775.8 0.4 5
2018-12-08 22:00:00 9.5 23 Sur 27 Sur 0 775.7 0.5 6
2018-12-08 21:00:00 9.5 24 Sudeste 26 Sudeste 0 775.5 0.4 6
2018-12-08 20:00:00 10.2 18 Sur 20 Sudeste 0 775.4 0.5 5
2018-12-08 19:00:00 10.2 15 Sudeste 16 Sudeste 0 775.2 0.3 5
2018-12-08 18:00:00 10.5 12 Sudeste 19 Sudeste 0 775.1 0.2 6
2018-12-08 17:00:00 12.2 14 Sudeste 20 Sudeste 0 774.9 -0.5 8
2018-12-08 16:00:00 13.1 15 Sudeste 19 Sudeste 0 774.9 -1 16
2018-12-08 15:00:00 13.3 12 Sudeste 20 Sudeste 0 774.9 -1.6 24
2018-12-08 14:00:00 13.5 13 Sudeste 20 Sudeste 0 775.4 -1.5 25
2018-12-08 13:00:00 13 15 Sudeste 26 Sudeste 0 775.9 -0.9 23
2018-12-08 12:00:00 13 19 Sudeste 27 Sudeste 0 776.5 0.2 22
2018-12-08 11:00:00 12.7 18 Sudeste 26 Sudeste 0 776.9 1.1 19
2018-12-08 10:00:00 11.6 16 Sudeste 22 Sudeste 0 776.8 1.3 17
2018-12-08 09:00:00 10.3 17 Sudeste 26 Sudeste 0 776.3 1.1 20
2018-12-08 08:00:00 7.9 24 Sudeste 27 Sudeste 0 775.8 0.6 21
2018-12-08 07:00:00 7.2 22 Sudeste 34 Sudeste 0 775.5 0.1 21
2018-12-08 06:00:00 7.2 29 Sudeste 39 Sudeste 0 775.2 -0.4 22
2018-12-08 05:00:00 7 32 Sudeste 41 Sudeste 0 775.2 -0.6 22
2018-12-08 04:00:00 7.2 33 Sudeste 45 Sudeste 0 775.4 -0.3 23
2018-12-08 03:00:00 7.7 35 Sudeste 46 Sudeste 0 775.6 -0.2 25
2018-12-08 02:00:00 7.4 40 Sudeste 56 Sudeste 0 775.8 0 26
2018-12-08 01:00:00 7.8 49 Sudeste 64 Sudeste 0 775.7 -0.3 27
2018-12-08 00:00:00 7.8 54 Sudeste 64 Sudeste 0 775.8 -0.1 27
2018-12-07 23:00:00 7.2 51 Sudeste 62 Sudeste 0 775.8 0.1 30
2018-12-07 22:00:00 6.9 50 Sudeste 64 Sudeste 0 776 0.4 33
2018-12-07 21:00:00 7.1 50 Sudeste 62 Sudeste 0 775.9 0.4 28
2018-12-07 20:00:00 7.1 51 Sudeste 61 Sudeste 0 775.7 0.4 26
2018-12-07 19:00:00 6.8 45 Sudeste 55 Sudeste 0 775.6 0.4 26
2018-12-07 18:00:00 6.6 37 Sudeste 50 Sudeste 0 775.5 0.2 33
2018-12-07 17:00:00 7.4 35 Sudeste 48 Sudeste 0 775.3 -0.1 35
2018-12-07 16:00:00 8.6 36 Sudeste 46 Sudeste 0 775.2 -0.9 28
2018-12-07 15:00:00 9.8 35 Sudeste 45 Sudeste 0 775.3 -1.3 28
2018-12-07 14:00:00 10.5 36 Sudeste 43 Sudeste 0 775.4 -1.4 21
2018-12-07 13:00:00 10.5 36 Sudeste 44 Sudeste 0 776.1 -0.6 16
2018-12-07 12:00:00 10.9 27 Sudeste 33 Sudeste 0 776.6 0.5 20
2018-12-07 11:00:00 10.6 23 Sudeste 30 Sur 0 776.8 1.3 20
2018-12-07 10:00:00 9.9 11 Sudeste 15 Sudeste 0 776.7 1.7 18
2018-12-07 09:00:00 8 6 Nordeste 18 Norte 0 776.1 1.3 18
2018-12-07 08:00:00 6.2 16 Norte 19 Norte 0 775.5 0.9 24
2018-12-07 07:00:00 6.5 12 Norte 17 Norte 0 775 0.4 23
2018-12-07 06:00:00 6.3 7 Norte 13 Norte 0 774.8 0 24
2018-12-07 05:00:00 5.9 5 Sudeste 21 Sudeste 0 774.6 0.2 33
2018-12-07 04:00:00 5.4 17 Sudeste 31 Sudeste 0 774.6 -0.1 35
2018-12-07 03:00:00 5.4 28 Sudeste 46 Sudeste 0 774.8 -0.2 38
2018-12-07 02:00:00 5.7 41 Sudeste 52 Sur 0 774.4 -0.5 41
2018-12-07 01:00:00 6.5 41 Sudeste 48 Sur 0 774.7 0.2 36
2018-12-07 00:00:00 6.3 38 Sur 46 Sur 0 775 1.3 35
2018-12-06 23:00:00 6.4 40 Sur 52 Sur 0 774.9 1.5 33
2018-12-06 22:00:00 6.4 48 Sur 58 Sur 0 774.5 1.7 33
2018-12-06 21:00:00 6.1 54 Sur 61 Sur 0 773.7 1.3 35
2018-12-06 20:00:00 6.5 54 Sur 61 Sur 0 773.4 1.3 31
2018-12-06 19:00:00 6.2 52 Sur 59 Sur 0 772.8 1.1 32
2018-12-06 18:00:00 6.5 49 Sur 59 Sur 0 772.4 0.9 31
2018-12-06 17:00:00 7.1 49 Sur 65 Sur 0 772.1 0.4 31
2018-12-06 16:00:00 7.8 54 Sur 69 Sur 0 771.7 -0.5 29
2018-12-06 15:00:00 8.3 58 Sur 71 Sur 0 771.5 -1.3 28
2018-12-06 14:00:00 8.1 54 Sur 70 Sur 0 771.7 -1.2 28
2018-12-06 13:00:00 8.1 49 Sur 66 Sur 0 772.2 -0.3 26
2018-12-06 12:00:00 8.1 57 Sur 75 Sur 0 772.8 1.1 21
2018-12-06 11:00:00 7.7 53 Sur 76 Sur 0 772.9 1.8 24
2018-12-06 10:00:00 7.8 57 Sur 78 Sur 0 772.5 1.8 26
2018-12-06 09:00:00 6.9 55 Sur 68 Sur 0 771.7 1.3 36
2018-12-06 08:00:00 4.9 46 Sur 67 Sur 0 771.1 0.9 41
2018-12-06 07:00:00 4.3 54 Sur 72 Sur 0 770.7 0.5 43
2018-12-06 06:00:00 4.5 57 Sur 71 Sur 0 770.4 0 43
2018-12-06 05:00:00 4.4 57 Sur 75 Sur 0 770.2 -0.1 44
2018-12-06 04:00:00 4.3 62 Sur 76 Sur 0 770.2 -0.6 44
2018-12-06 03:00:00 4.6 66 Sur 79 Sur 0 770.4 -0.9 43
2018-12-06 02:00:00 4.5 63 Sur 77 Sur 0 770.3 -0.8 44
2018-12-06 01:00:00 4.6 56 Sur 66 Sur 0 770.8 0.1 53
2018-12-06 00:00:00 4.3 45 Sur 63 Sur 0 771.3 0.7 55
2018-12-05 23:00:00 4.6 45 Sur 59 Sur 0 771.1 0.8 55
2018-12-05 22:00:00 4.5 43 Sur 57 Sur 0 770.7 0.8 56
2018-12-05 21:00:00 4.7 36 Sur 44 Sur 0 770.6 1.2 50
2018-12-05 20:00:00 5.5 38 Sur 42 Sur 0 770.3 1.3 44
2018-12-05 19:00:00 4.9 35 Sur 47 Sur 0 769.9 1.1 43
2018-12-05 18:00:00 5.9 35 Sur 51 Sur 0 769.4 0.7 40
2018-12-05 17:00:00 7.2 39 Sur 51 Sur 0 769 0.2 43
2018-12-05 16:00:00 7.4 36 Sur 50 Sur 0 768.8 -0.2 52
2018-12-05 15:00:00 8.3 37 Sur 52 Sur 0 768.7 -0.6 49
2018-12-05 14:00:00 8.7 38 Sur 55 Sur 0 768.8 -0.9 50
2018-12-05 13:00:00 7.7 41 Sur 62 Sur 0 769 -0.8 55
2018-12-05 12:00:00 7.5 47 Sur 64 Sur 0 769.3 0 55
2018-12-05 11:00:00 6.7 49 Sur 62 Sur 0 769.7 0.7 59
2018-12-05 10:00:00 6.1 46 Sur 56 Sur 0 769.8 1.4 60
2018-12-05 09:00:00 4.9 41 Sur 53 Sur 0 769.3 1.6 67
2018-12-05 08:00:00 3.4 42 Sur 55 Sur 0 769 1.6 72
2018-12-05 07:00:00 2.9 49 Sur 63 Sur 0 768.4 0.9 74
2018-12-05 06:00:00 3.2 48 Sur 64 Sur 0 767.7 -0.2 75
2018-12-05 05:00:00 3.6 50 Sur 74 Sur 0 767.4 -0.8 76
2018-12-05 04:00:00 3.5 55 Sur 68 Sur 0 767.5 -0.9 76
2018-12-05 03:00:00 3.6 57 Sur 66 Sur 0 767.9 -1 75
2018-12-05 02:00:00 3.6 55 Sur 64 Sur 0 768.2 -0.9 73
2018-12-05 01:00:00 3.5 51 Sur 58 Sur 0 768.4 -0.8 70
2018-12-05 00:00:00 3.5 46 Sur 51 Sur 0 768.9 -0.4 71
2018-12-04 23:00:00 4.4 45 Sur 50 Sur 0 769.1 0.2 72
2018-12-04 22:00:00 4.9 40 Sur 45 Sur 0 769.2 0.6 65
2018-12-04 21:00:00 4.9 37 Sur 41 Sur 0 769.3 0.9 66
2018-12-04 20:00:00 4.6 37 Sur 43 Sur 0 768.9 0.6 69
2018-12-04 19:00:00 4.6 37 Sur 42 Sur 0 768.6 0.3 60
2018-12-04 18:00:00 5.3 35 Sudoeste 37 Sudoeste 0 768.4 -0.2 55
2018-12-04 17:00:00 7.5 31 Sudoeste 36 Sur 0 768.3 -0.8 51
2018-12-04 16:00:00 9.7 32 Sur 39 Sur 0 768.3 -1.4 48
2018-12-04 15:00:00 9.9 31 Sur 41 Sur 0 768.6 -1.7 44
2018-12-04 14:00:00 10.4 32 Sur 51 Sur 0 769.1 -1.8 39
2018-12-04 13:00:00 10.3 39 Sur 50 Sur 0 769.7 -1.1 38
2018-12-04 12:00:00 10 41 Sur 51 Sur 0 770.3 0 41
2018-12-04 11:00:00 10.2 37 Sur 46 Sur 0 770.9 1.1 39
2018-12-04 10:00:00 9.7 37 Sur 44 Sur 0 770.8 1.1 38
2018-12-04 09:00:00 7.5 37 Sudoeste 46 Sudoeste 0 770.3 0.8 42
2018-12-04 08:00:00 5.1 44 Sudoeste 48 Sudoeste 0 769.8 0.2 48
2018-12-04 07:00:00 6.5 42 Sur 48 Sur 0 769.7 -0.2 20
2018-12-04 06:00:00 6.3 36 Sudoeste 42 Sudoeste 0 769.5 -0.6 22
2018-12-04 05:00:00 5.8 37 Sudoeste 42 Sudoeste 0 769.6 -1 22
2018-12-04 04:00:00 6.4 38 Sudoeste 46 Sudoeste 0 769.9 -1.2 19
2018-12-04 03:00:00 7.2 39 Sur 45 Sur 0 770.1 -1.3 14
2018-12-04 02:00:00 7.8 27 Sudoeste 34 Sur 0 770.6 -1 13
2018-12-04 01:00:00 8.3 24 Sudoeste 29 Sudoeste 0 771.1 -0.6 13
2018-12-04 00:00:00 7 28 Sudoeste 32 Sudoeste 0 771.4 -0.3 15
2018-12-03 23:00:00 8.2 30 Sudoeste 32 Sudoeste 0 771.6 0 14
2018-12-03 22:00:00 9.1 31 Sudoeste 37 Sudoeste 0 771.7 0.2 12
2018-12-03 21:00:00 9.5 31 Sudoeste 36 Sudoeste 0 771.7 0.3 12
2018-12-03 20:00:00 9.2 32 Sudoeste 36 Sudoeste 0 771.6 0.4 12
2018-12-03 19:00:00 9.3 24 Sudoeste 31 Sudoeste 0 771.5 0.4 14
2018-12-03 18:00:00 10.5 19 Sudoeste 24 Sudoeste 0 771.4 0.3 16
2018-12-03 17:00:00 13.1 21 Sudoeste 35 Sudoeste 0 771.2 -0.2 13
2018-12-03 16:00:00 14.2 27 Sudoeste 38 Sudoeste 0 771.1 -1 12
2018-12-03 15:00:00 15.1 26 Sudoeste 37 Sudoeste 0 771.1 -1.6 19
2018-12-03 14:00:00 15.4 30 Sudoeste 41 Sudoeste 0 771.4 -1.4 17
2018-12-03 13:00:00 15.4 31 Sudoeste 46 Sudoeste 0 772.1 -0.4 13
2018-12-03 12:00:00 15.2 35 Sudoeste 45 Sudoeste 0 772.7 0.5 14
2018-12-03 11:00:00 14.4 36 Sudoeste 50 Sudoeste 0 772.8 1 13
2018-12-03 10:00:00 13.1 40 Sudoeste 45 Sudoeste 0 772.5 1.1 12
2018-12-03 09:00:00 11.6 33 Sudoeste 41 Sudoeste 0 772.2 1.1 13
2018-12-03 08:00:00 9.3 39 Sudoeste 43 Sudoeste 0 771.8 0.6 13
2018-12-03 07:00:00 8.8 39 Sudoeste 45 Sudoeste 0 771.4 -0.1 15
2018-12-03 06:00:00 8.5 40 Sudoeste 49 Sudoeste 0 771.1 -0.7 21
2018-12-03 05:00:00 8.2 44 Sudoeste 51 Sudoeste 0 771.2 -0.9 21
2018-12-03 04:00:00 8.2 44 Sur 50 Sur 0 771.5 -1.2 17
2018-12-03 03:00:00 8.3 44 Sur 48 Sur 0 771.8 -1.5 14
2018-12-03 02:00:00 8 42 Sur 45 Sur 0 772.1 -1.6 16
2018-12-03 01:00:00 7.8 32 Sur 37 Sur 0 772.7 -1.3 23
2018-12-03 00:00:00 8.6 24 Sur 27 Sur 0 773.3 -0.3 19
2018-12-02 23:00:00 9.3 22 Sur 26 Sur 0 773.7 0.2 13
2018-12-02 22:00:00 9.7 21 Sur 29 Sur 0 774 0.6 13
2018-12-02 21:00:00 10.1 26 Sur 29 Sur 0 773.6 0.4 13
2018-12-02 20:00:00 10.5 16 Sur 21 Sur 0 773.5 0.5 11
2018-12-02 19:00:00 10.6 11 Sur 15 Sur 0 773.4 0.5 12
2018-12-02 18:00:00 11.6 11 Sur 18 Sudoeste 0 773.2 0.3 12
2018-12-02 17:00:00 13.9 13 Sudoeste 21 Sudoeste 0 773 -0.3 14
2018-12-02 16:00:00 15 13 Sudoeste 22 Sudoeste 0 772.9 -0.8 13
2018-12-02 15:00:00 14.5 19 Sur 34 Sur 0 772.9 -1.5 19
2018-12-02 14:00:00 14.9 21 Sur 31 Sur 0 773.3 -1.3 20
2018-12-02 13:00:00 14.7 23 Sur 32 Sur 0 773.7 -0.7 14
2018-12-02 12:00:00 14.5 21 Sur 30 Sur 0 774.4 0.4 17
2018-12-02 11:00:00 14 19 Sur 31 Sur 0 774.6 1.1 15
2018-12-02 10:00:00 13.1 23 Sur 30 Sur 0 774.4 1.3 14
2018-12-02 09:00:00 11.5 24 Sur 35 Sur 0 774 1.1 16
2018-12-02 08:00:00 9.7 30 Sur 35 Sur 0 773.5 0.7 19
2018-12-02 07:00:00 9.4 28 Sur 36 Sur 0 773.1 0.1 17
2018-12-02 06:00:00 9.7 29 Sur 34 Sur 0 772.9 -0.2 15
2018-12-02 05:00:00 9.6 26 Sur 36 Sur 0 772.8 -0.4 12
2018-12-02 04:00:00 8.6 27 Sur 29 Sur 0 773 -0.5 17
2018-12-02 03:00:00 8.2 23 Sudeste 27 Sudeste 0 773.1 -0.7 15
2018-12-02 02:00:00 8.2 22 Sudeste 25 Sudeste 0 773.2 -0.7 10
2018-12-02 01:00:00 7.9 15 Sudeste 21 Sudeste 0 773.5 -0.5 9
2018-12-02 00:00:00 8.2 14 Sudeste 18 Este 0 773.8 -0.1 8
2018-12-01 23:00:00 8.8 14 Este 17 Este 0 773.9 0.1 8
2018-12-01 22:00:00 9.9 9 Nordeste 13 Nordeste 0 774 0.7 4
2018-12-01 21:00:00 9.5 8 Este 12 Nordeste 0 773.9 0.9 8
2018-12-01 20:00:00 9.8 8 Nordeste 12 Este 0 773.8 0.8 10
2018-12-01 19:00:00 9.6 6 Nordeste 11 Este 0 773.3 0.4 12
2018-12-01 18:00:00 11.1 6 Este 8 Este 0 773 0.2 18
2018-12-01 17:00:00 13.5 5 Este 8 Este 0 773 -0.1 13
2018-12-01 16:00:00 15.3 4 Sudeste 9 Sudeste 0 772.9 -0.8 11
2018-12-01 15:00:00 15.1 4 Este 14 Este 0 772.8 -1.4 21
2018-12-01 14:00:00 15.5 8 Este 17 Este 0 773.1 -1.2 24
2018-12-01 13:00:00 14.6 6 Sudeste 14 Sudeste 0 773.7 -0.3 15
2018-12-01 12:00:00 13.2 3 Norte 14 Este 0 774.2 0.5 31
2018-12-01 11:00:00 11.7 5 Nordeste 10 Este 0 774.3 1 32
2018-12-01 10:00:00 11.6 7 Nordeste 15 Este 0 774 1.1 30
2018-12-01 09:00:00 11 6 Este 11 Este 0 773.7 1.1 14
2018-12-01 08:00:00 9.4 8 Nordeste 11 Nordeste 0 773.3 1 7
2018-12-01 07:00:00 9.6 8 Nordeste 10 Nordeste 0 772.9 0.5 12
2018-12-01 06:00:00 8.3 10 Norte 13 Norte 0 772.6 0 16
2018-12-01 05:00:00 8.1 -- -- -- -- 0 772.3 -0.5 16
2018-12-01 04:00:00 8 10 Norte 13 Norte 0 772.4 -0.8 15
2018-12-01 03:00:00 9.1 5 Norte 8 Nordeste 0 772.6 -0.9 16
2018-12-01 02:00:00 8.8 5 Norte 10 Norte 0 772.8 -1 23
2018-12-01 01:00:00 8.5 8 Norte 12 Norte 0 773.2 -0.7 26
2018-12-01 00:00:00 8.6 9 Norte 17 Norte 0 773.5 -0.3 22
2018-11-30 23:00:00 7.1 10 Norte 14 Norte 0 773.8 0.4 26
2018-11-30 22:00:00 7.2 9 Norte 17 Norte 0 773.9 0.8 19
2018-11-30 21:00:00 7 13 Norte 15 Norte 0 773.8 1 31
2018-11-30 20:00:00 6.4 17 Noroeste 19 Norte 0 773.4 0.8 33
2018-11-30 19:00:00 8 9 Norte 15 Noroeste 0 773.1 0.5 21
2018-11-30 18:00:00 8 13 Noroeste 17 Noroeste 0 772.8 0.1 32
2018-11-30 17:00:00 9.9 17 Noroeste 21 Noroeste 0 772.6 -0.5 39
2018-11-30 16:00:00 11.9 14 Noroeste 20 Noroeste 0 772.6 -1.3 19
2018-11-30 15:00:00 12 15 Noroeste 22 Norte 0 772.7 -1.6 29
2018-11-30 14:00:00 12.9 15 Noroeste 23 Noroeste 0 773.1 -1.7 21
2018-11-30 13:00:00 12.2 9 Norte 19 Norte 0 773.9 -0.8 22
2018-11-30 12:00:00 12 11 Norte 17 Norte 0 774.3 0.3 35
2018-11-30 11:00:00 11.1 6 Norte 10 Norte 0 774.8 1.3 24
2018-11-30 10:00:00 10.4 7 Norte 9 Norte 0 774.7 1.5 27
2018-11-30 09:00:00 9.4 7 Noroeste 16 Noroeste 0 774 1.2 26
2018-11-30 08:00:00 8.2 12 Noroeste 14 Noroeste 0 773.5 0.6 22
2018-11-30 07:00:00 7.7 13 Norte 14 Norte 0 773.2 0.2 24
2018-11-30 06:00:00 8 7 Norte 10 Nordeste 0 772.8 -0.2 28
2018-11-30 05:00:00 7.6 8 Este 9 Este 0 772.9 -0.5 31
2018-11-30 04:00:00 7.9 9 Este 12 Este 0 773 -0.8 30
2018-11-30 03:00:00 7.5 9 Este 12 Este 0 773 -1.1 28
2018-11-30 02:00:00 7.2 10 Este 15 Sudeste 0 773.4 -0.8 27
2018-11-30 01:00:00 7.8 10 Este 12 Este 0 773.8 -0.3 26
2018-11-30 00:00:00 8.1 8 Este 14 Nordeste 0 774.1 0.2 25
2018-11-29 23:00:00 8.7 9 Nordeste 16 Nordeste 0 774.2 0.5 22
2018-11-29 22:00:00 8.4 9 Norte 15 Norte 0 774.1 0.8 19
2018-11-29 21:00:00 8.9 9 Noroeste 14 Norte 0 773.9 0.9 17
2018-11-29 20:00:00 8.4 8 Norte 21 Norte 0 773.7 1.2 17
2018-11-29 19:00:00 7.8 16 Norte 20 Norte 0 773.3 1.1 22
2018-11-29 18:00:00 9.1 12 Noroeste 18 Noroeste 0 773 0.9 24
2018-11-29 17:00:00 10.7 14 Noroeste 21 Noroeste 0 772.5 -0.1 33
2018-11-29 16:00:00 11.6 14 Noroeste 22 Noroeste 0 772.2 -1 34
2018-11-29 15:00:00 11.9 16 Noroeste 23 Noroeste 0 772.1 -1.7 39
2018-11-29 14:00:00 12.5 12 Norte 19 Norte 0 772.6 -1.5 27
2018-11-29 13:00:00 13.9 3 Sudeste 15 Sudeste 0 773.2 -0.8 44
2018-11-29 12:00:00 10.7 9 Noroeste 23 Noroeste 0 773.8 0.4 32
2018-11-29 11:00:00 11.1 10 Noroeste 15 Noroeste 0 774.1 1.1 25
2018-11-29 10:00:00 11.3 7 Noroeste 13 Noroeste 0 774 1.6 23
2018-11-29 09:00:00 10.8 12 Sudoeste 15 Sudoeste 0 773.4 1 18
2018-11-29 08:00:00 8 12 Sudoeste 25 Sur 0 773 0.5 21
2018-11-29 07:00:00 7.4 21 Sur 23 Sur 0 772.4 0 20
2018-11-29 06:00:00 7.6 17 Sur 18 Sur 0 772.4 0.1 20
2018-11-29 05:00:00 8.1 13 Sur 20 Sur 0 772.5 0.2 17
2018-11-29 04:00:00 8.3 16 Sur 21 Sur 0 772.4 -0.1 18
2018-11-29 03:00:00 7.9 12 Sur 14 Sur 0 772.3 -0.5 20
2018-11-29 02:00:00 8.5 8 Sur 13 Sur 0 772.3 -0.3 20
2018-11-29 01:00:00 7.8 9 Sur 17 Sur 0 772.5 0 25
2018-11-29 00:00:00 7.7 15 Sur 26 Sur 0 772.8 0.4 28
2018-11-28 23:00:00 7.4 22 Sudeste 27 Sudeste 0 772.6 0.3 35
2018-11-28 22:00:00 7.6 17 Sudeste 21 Sudeste 0 772.5 0.6 38
2018-11-28 21:00:00 7.6 16 Sudeste 19 Sudeste 0 772.4 0.8 36
2018-11-28 20:00:00 7.5 14 Sudeste 18 Sudeste 0 772.3 0.8 43
2018-11-28 12:00:00 12.4 16 Sur 26 Sur 0 772.5 0.4 37
2018-11-28 11:00:00 11.7 17 Sur 29 Sur 0 772.8 1.1 42
2018-11-28 10:00:00 10.8 19 Sur 27 Sur 0 772.8 1.3 37
2018-11-28 09:00:00 9.1 20 Sudoeste 25 Sudoeste 0 772.1 0.9 50
2018-11-28 08:00:00 6.7 23 Sudoeste 26 Sudoeste 0 771.7 0.7 54
2018-11-28 07:00:00 6.1 23 Sudoeste 29 Sur 0 771.5 0.4 58
2018-11-28 06:00:00 5.7 25 Sudoeste 31 Sur 0 771.2 0.1 60
2018-11-28 05:00:00 6 27 Sur 31 Sur 0 771 -0.2 59
2018-11-28 04:00:00 5.8 21 Sur 30 Sur 0 771.1 -0.1 61
2018-11-28 03:00:00 6.5 21 Sur 31 Sur 0 771.1 -0.2 59
2018-11-28 02:00:00 6.4 23 Sur 29 Sur 0 771.2 -0.2 59
2018-11-28 01:00:00 6.1 25 Sur 29 Sur 0 771.2 -0.1 55
2018-11-28 00:00:00 5.8 26 Sudeste 28 Sudeste 0 771.3 0.3 52
2018-11-27 23:00:00 5.4 16 Sudeste 19 Sudeste 0 771.4 0.8 51
2018-11-27 22:00:00 5.9 18 Sudeste 21 Sur 0 771.3 0.9 59
2018-11-27 21:00:00 5.9 21 Sur 23 Sur 0 771 1 59
2018-11-27 20:00:00 5.8 14 Sudeste 17 Sur 0 770.6 0.6 59
2018-11-27 19:00:00 5.9 10 Sudeste 12 Sudeste 0 770.4 0.3 58
2018-11-27 18:00:00 6.4 6 Norte 12 Noroeste 0 770 -0.1 72
2018-11-27 17:00:00 8.8 5 Norte 17 Norte 0 770 -0.5 67
2018-11-27 16:00:00 9.3 6 Nordeste 15 Norte 0 770.1 -0.9 76
2018-11-27 15:00:00 10 6 Norte 23 Sudeste 0 770.1 -1.4 75
2018-11-27 14:00:00 9.9 10 Sudeste 24 Sudeste 0 770.5 -1.4 68
2018-11-27 13:00:00 8.9 8 Norte 19 Norte 0 771 -0.8 76
2018-11-27 12:00:00 8.5 14 Norte 21 Norte 0 771.5 0.2 62
2018-11-27 11:00:00 7.9 14 Norte 19 Norte 0 771.9 1.2 64
2018-11-27 10:00:00 7.8 6 Nordeste 23 Este 0 771.8 1.7 69
2018-11-27 09:00:00 7.1 12 Sudeste 19 Sudeste 0 771.3 1.3 70
2018-11-27 08:00:00 4.5 12 Norte 18 Noroeste 0 770.7 0.5 89
2018-11-27 07:00:00 5.1 17 Noroeste 21 Noroeste 0 770.1 -0.6 79
2018-11-27 06:00:00 4.8 14 Noroeste 19 Noroeste 0 770 -0.9 78
2018-11-27 05:00:00 5.6 13 Noroeste 16 Noroeste 0 770.2 -0.9 66
2018-11-27 04:00:00 5.6 8 Noroeste 15 Noroeste 0 770.7 -0.6 75
2018-11-27 03:00:00 4.4 14 Noroeste 24 Noroeste 0 770.9 -0.7 99
2018-11-27 02:00:00 3.9 22 Noroeste 34 Noroeste 0 771.1 -0.4 93
2018-11-27 01:00:00 4.1 28 Noroeste 32 Norte 0 771.3 -0.1 82
2018-11-27 00:00:00 4.4 25 Noroeste 32 Noroeste 0 771.6 0.7 82
2018-11-26 23:00:00 5.2 33 Noroeste 40 Noroeste 0 771.5 0.6 81
2018-11-26 22:00:00 5.3 41 Noroeste 52 Noroeste 0 771.4 0.4 81
2018-11-26 21:00:00 5.4 45 Noroeste 49 Noroeste 0 770.9 0 76
2018-11-26 20:00:00 5.7 42 Noroeste 46 Noroeste 0 770.9 -0.1 72
2018-11-26 19:00:00 5.6 24 Noroeste 33 Noroeste 0 771 -0.2 74
2018-11-26 18:00:00 6.6 25 Noroeste 28 Noroeste 0 770.9 -0.5 80
2018-11-26 17:00:00 8.6 11 Noroeste 17 Noroeste 0 771 -0.7 84
2018-11-26 16:00:00 10.5 6 Este 15 Noroeste 0 771.2 -1.2 82
2018-11-26 15:00:00 9.4 6 Noroeste 23 Norte 0 771.4 -1.5 87
2018-11-26 14:00:00 9.9 17 Norte 24 Noroeste 0 771.7 -1.4 82
2018-11-26 13:00:00 9.6 5 Norte 16 Sudeste 0 772.4 -0.5 80
2018-11-26 12:00:00 10.3 6 Sur 16 Sudeste 0 772.9 0.4 72
2018-11-26 11:00:00 9.8 5 Noroeste 11 Norte 0 773.1 0.9 63
2018-11-26 10:00:00 9.4 5 Norte 9 Norte 0 772.9 0.9 61
2018-11-26 09:00:00 9.4 0 Calma 7 Noroeste 0 772.5 0.6 54
2018-11-26 08:00:00 8.2 4 Noroeste 6 Norte 0 772.2 0.1 51
2018-11-26 07:00:00 7.3 2 Sur 12 Norte 0 772 -0.4 59
2018-11-26 06:00:00 6.9 13 Noroeste 17 Noroeste 0 771.9 -0.9 65
2018-11-26 05:00:00 6.6 16 Norte 19 Norte 0 772.1 -1 70
2018-11-26 04:00:00 6.6 15 Noroeste 21 Norte 0 772.4 -1 73
2018-11-26 03:00:00 6.5 15 Noroeste 19 Norte 0 772.8 -1 72
2018-11-26 02:00:00 6.5 12 Noroeste 16 Noroeste 0 773.1 -1 74
2018-11-26 01:00:00 6.9 12 Noroeste 17 Noroeste 0 773.4 -0.8 74
2018-11-26 00:00:00 6.7 15 Noroeste 20 Norte 0 773.8 -0.4 74
2018-11-25 23:00:00 6.6 13 Noroeste 23 Noroeste 0 774.1 0.3 73
2018-11-25 22:00:00 6.8 18 Noroeste 22 Noroeste 0 774.2 0.7 71
2018-11-25 21:00:00 6.8 16 Noroeste 22 Norte 0 774.2 0.9 73
2018-11-25 20:00:00 6 20 Noroeste 28 Noroeste 0 773.8 0.7 76
2018-11-25 19:00:00 6.2 26 Noroeste 30 Noroeste 0 773.5 0.3 76
2018-11-25 18:00:00 7.1 26 Noroeste 32 Noroeste 0 773.3 -0.1 80
2018-11-25 17:00:00 9.2 27 Noroeste 33 Noroeste 0 773.1 -0.5 74
2018-11-25 16:00:00 9.9 23 Norte 30 Norte 0 773.2 -0.7 73
2018-11-25 15:00:00 10.3 15 Norte 21 Norte 0 773.4 -1.1 72
2018-11-25 14:00:00 10 21 Noroeste 30 Norte 0 773.6 -1.2 73
2018-11-25 13:00:00 9.9 21 Noroeste 28 Norte 0 773.9 -0.5 71
2018-11-25 12:00:00 10.2 16 Noroeste 21 Norte 0 774.5 0.6 67
2018-11-25 11:00:00 9.5 12 Noroeste 22 Noroeste 0 774.8 1.4 69
2018-11-25 10:00:00 7.9 20 Noroeste 28 Noroeste 0 774.4 1.5 74
2018-11-25 09:00:00 6.9 25 Noroeste 28 Noroeste 0 773.9 1.3 73
2018-11-25 08:00:00 6.2 23 Noroeste 27 Noroeste 0 773.4 1 77
2018-11-25 07:00:00 5.4 26 Noroeste 32 Noroeste 0 772.9 0.4 83
2018-11-25 06:00:00 5.6 28 Noroeste 31 Noroeste 0 772.6 -0.1 81
2018-11-25 05:00:00 5.9 28 Noroeste 33 Noroeste 0 772.4 -0.2 79
2018-11-25 04:00:00 5.7 28 Noroeste 40 Noroeste 0 772.5 0.1 78
2018-11-25 03:00:00 5.5 28 Noroeste 36 Noroeste 0 772.7 0 76
2018-11-25 02:00:00 4.8 28 Noroeste 37 Noroeste 0 772.6 0.3 100
2018-11-25 01:00:00 5.3 36 Noroeste 44 Noroeste 0 772.4 0.4 100
2018-11-25 00:00:00 5.5 35 Noroeste 53 Noroeste 0 772.7 1.2 100
2018-11-24 23:00:00 5.5 50 Noroeste 58 Noroeste 0 772.3 1.2 100
2018-11-24 22:00:00 5.7 42 Noroeste 56 Noroeste 0 772 1.3 100
2018-11-24 21:00:00 5.7 51 Noroeste 57 Noroeste 0 771.5 0.8 100
2018-11-24 20:00:00 5.4 44 Noroeste 56 Noroeste 0 771.1 0.4 100
2018-11-24 19:00:00 5.5 53 Noroeste 59 Noroeste 0 770.7 0.4 100
2018-11-24 18:00:00 5.6 43 Noroeste 53 Noroeste 0 770.7 0.7 100
2018-11-24 17:00:00 6.1 41 Noroeste 49 Noroeste 0 770.7 0.6 100
2018-11-24 16:00:00 6.4 46 Noroeste 64 Noroeste 0 770.3 -0.3 100
2018-11-24 15:00:00 6.4 58 Noroeste 64 Noroeste 0 770 -0.5 100
2018-11-24 14:00:00 7.4 55 Noroeste 63 Noroeste 0 770.1 -0.4 93
2018-11-24 13:00:00 6.8 51 Noroeste 66 Noroeste 0 770.6 0.3 90
2018-11-24 12:00:00 6 60 Noroeste 66 Noroeste 0 770.5 0.2 88
2018-11-24 11:00:00 4.9 58 Noroeste 63 Noroeste 0 770.5 0.9 90
2018-11-24 10:00:00 3.8 55 Noroeste 59 Noroeste 0 770.3 1.1 80
2018-11-24 09:00:00 3.4 47 Noroeste 54 Noroeste 0 770.3 1.6 88
2018-11-24 08:00:00 2.6 49 Noroeste 53 Noroeste 0 769.6 1 78
2018-11-24 07:00:00 2.2 45 Noroeste 52 Noroeste 0 769.2 0.8 32
2018-11-24 06:00:00 2.4 44 Noroeste 49 Noroeste 0 768.7 -0.1 18
2018-11-24 05:00:00 1.4 39 Noroeste 49 Noroeste 0 768.6 -0.2 18
2018-11-24 04:00:00 0.8 43 Noroeste 47 Noroeste 0 768.4 -0.3 24
2018-11-24 03:00:00 0.5 37 Noroeste 52 Noroeste 0 768.8 -0.1 27
2018-11-24 02:00:00 0 42 Noroeste 46 Noroeste 0 768.8 -0.2 30
2018-11-24 01:00:00 0.5 45 Noroeste 50 Noroeste 0 768.7 0 32
2018-11-24 00:00:00 -0.5 33 Noroeste 38 Noroeste 0 768.9 0.4 36
2018-11-23 23:00:00 -2 32 Noroeste 39 Noroeste 0 769 0.7 50
2018-11-23 22:00:00 -1.9 36 Noroeste 43 Noroeste 0 768.7 0.9 55
2018-11-23 21:00:00 -2.8 38 Noroeste 42 Noroeste 0 768.5 1.4 66
2018-11-23 20:00:00 -3.5 26 Noroeste 38 Noroeste 0 768.3 1.6 78
2018-11-23 19:00:00 -3.3 32 Noroeste 40 Noroeste 0 767.8 1.2 84
2018-11-23 18:00:00 -3 40 Noroeste 43 Noroeste 0 767.1 0.7 92
2018-11-23 17:00:00 -0.7 36 Noroeste 38 Noroeste 0 766.7 0.1 100
2018-11-23 16:00:00 -0.3 32 Noroeste 38 Noroeste 0 766.6 -0.5 100
2018-11-23 15:00:00 -0.1 32 Noroeste 50 Noroeste 0 766.4 -0.9 100
2018-11-23 14:00:00 -0.1 27 Norte 39 Noroeste 0 766.6 -0.2 100
2018-11-23 13:00:00 -0.2 30 Norte 40 Norte 0 767.1 1.3 100
2018-11-23 12:00:00 -0.2 12 Noroeste 50 Norte 0.2 767.3 2.3 100
2018-11-23 11:00:00 -0.4 46 Norte 67 Noroeste 0.6 766.8 2.8 100
2018-11-23 10:00:00 -0.8 56 Norte 75 Norte 2.6 765.8 2.9 100
2018-11-23 09:00:00 -0.9 52 Norte 73 Noroeste 1.8 765 1.7 100
2018-11-23 08:00:00 -1.9 55 Noroeste 75 Noroeste 0.6 764 1.7 100
2018-11-23 07:00:00 -1.6 67 Noroeste 80 Noroeste 0.6 762.9 0.5 100
2018-11-23 06:00:00 -2.1 40 Noroeste 72 Noroeste 0.2 763.3 0.2 100
2018-11-23 05:00:00 -2 55 Noroeste 69 Noroeste 0.2 762.3 -0.4 100
2018-11-23 04:00:00 -2.2 48 Noroeste 67 Noroeste 0.4 762.4 -0.7 100
2018-11-23 03:00:00 -1.9 50 Noroeste 58 Noroeste 0.2 763.1 -0.5 100
2018-11-23 02:00:00 -1.5 46 Noroeste 65 Noroeste 1 762.7 -1.2 100
2018-11-23 01:00:00 -1.3 39 Noroeste 52 Noroeste 1.8 763.1 -0.6 100
2018-11-23 00:00:00 -1.3 37 Noroeste 45 Noroeste 1 763.6 0.1 100
2018-11-22 23:00:00 -0.8 30 Noroeste 50 Noroeste 0 763.9 1.4 100
2018-11-22 22:00:00 -0.9 44 Noroeste 57 Noroeste 0.4 763.7 1.2 100
2018-11-22 21:00:00 -0.3 39 Noroeste 69 Noroeste 0 763.5 1.3 100
2018-11-22 20:00:00 -0.2 58 Noroeste 66 Noroeste 0.6 762.5 -0.2 100
2018-11-22 19:00:00 -0.3 42 Noroeste 56 Norte 0.4 762.5 -0.1 100
2018-11-22 18:00:00 0 40 Noroeste 47 Noroeste 0 762.2 -0.3 100
2018-11-22 17:00:00 1.1 31 Noroeste 42 Noroeste 0 762.7 -0.2 100
2018-11-22 16:00:00 2 30 Noroeste 50 Noroeste 0 762.6 -0.7 100
2018-11-22 15:00:00 2.4 36 Noroeste 49 Noroeste 0 762.5 -1.7 100
2018-11-22 14:00:00 2.2 41 Noroeste 54 Noroeste 0.2 762.9 -1.3 100
2018-11-22 13:00:00 2.7 42 Noroeste 51 Noroeste 0.2 763.3 -0.6 100
2018-11-22 12:00:00 3.4 34 Noroeste 46 Noroeste 0 764.2 0.5 100
2018-11-22 11:00:00 3.2 37 Noroeste 54 Noroeste 0 764.2 0.7 100
2018-11-22 10:00:00 2.6 43 Noroeste 58 Noroeste 0 763.9 2.2 100
2018-11-22 09:00:00 1.9 43 Noroeste 70 Noroeste 0 763.7 1.8 100
2018-11-22 08:00:00 2.3 42 Noroeste 87 Noroeste 0 763.5 0.7 82
2018-11-22 07:00:00 1.8 73 Noroeste 90 Noroeste 0.4 761.7 -2 87
2018-11-22 06:00:00 1.2 69 Noroeste 97 Noroeste 0.6 761.9 -2.7 92
2018-11-22 05:00:00 2.3 52 Noroeste 64 Noroeste 0 762.8 -2.1 94
2018-11-22 04:00:00 2.7 35 Noroeste 42 Noroeste 0.2 763.7 -1.7 96
2018-11-22 03:00:00 3.7 8 Noroeste 21 Noroeste 0 764.6 -1.1 97
2018-11-22 02:00:00 3.7 17 Oeste 31 Noroeste 0 764.9 -1.1 98
2018-11-22 01:00:00 3.7 24 Noroeste 33 Noroeste 0 765.4 -0.8 100
2018-11-22 00:00:00 3.7 30 Noroeste 44 Noroeste 0 765.7 -0.4 100
2018-11-21 23:00:00 4.1 25 Noroeste 40 Noroeste 0 766 0.1 100
2018-11-21 22:00:00 4.1 18 Oeste 30 Oeste 0 766.2 0.9 100
2018-11-21 21:00:00 3.7 15 Noroeste 32 Oeste 0 766.1 1 100
2018-11-21 20:00:00 3.5 10 Oeste 28 Noroeste 0 765.9 0.8 100
2018-11-21 19:00:00 4.3 22 Noroeste 32 Noroeste 0 765.3 -0.1 100
2018-11-21 18:00:00 4.8 14 Noroeste 20 Noroeste 0 765.1 -0.8 100
2018-11-21 17:00:00 5.3 22 Noroeste 42 Noroeste 0 765.1 -1.1 97
2018-11-21 16:00:00 6.5 25 Noroeste 37 Noroeste 0 765.4 -1.4 91
2018-11-21 15:00:00 7.6 13 Noroeste 24 Noroeste 0 765.9 -1.4 80
2018-11-21 14:00:00 7.9 19 Noroeste 27 Noroeste 0 766.2 -1.6 80
2018-11-21 13:00:00 8.3 7 Norte 18 Noroeste 0 766.8 -0.8 68
2018-11-21 12:00:00 9.5 5 Nordeste 13 Norte 0 767.3 0 58
2018-11-21 11:00:00 9 4 Norte 15 Oeste 0 767.8 0.9 43
2018-11-21 10:00:00 8.1 11 Noroeste 16 Noroeste 0 767.6 1.3 50
2018-11-21 09:00:00 6.8 13 Noroeste 19 Noroeste 0 767.3 0.8 54
2018-11-21 08:00:00 5.4 16 Noroeste 26 Noroeste 0 766.9 0.3 49
2018-11-21 07:00:00 5.3 22 Noroeste 33 Noroeste 0 766.3 -0.6 26
2018-11-21 06:00:00 5.3 9 Noroeste 18 Noroeste 0 766.5 -0.6 14
2018-11-21 05:00:00 5.8 3 Noroeste 10 Noroeste 0 766.6 -0.7 11
2018-11-21 04:00:00 5.7 8 Sudoeste 11 Sudoeste 0 766.9 -0.9 12
2018-11-21 03:00:00 5.8 5 Sur 8 Noroeste 0 767.1 -1.1 10
2018-11-21 02:00:00 5 12 Noroeste 22 Noroeste 0 767.3 -0.8 17
2018-11-21 01:00:00 5.6 15 Noroeste 21 Noroeste 0 767.8 -0.3 15
2018-11-21 00:00:00 5.4 11 Oeste 22 Noroeste 0 768.2 0.2 15
2018-11-20 23:00:00 4.8 19 Noroeste 26 Noroeste 0 768.1 0.3 20
2018-11-20 22:00:00 4.9 14 Oeste 19 Oeste 0 768.1 0.9 23
2018-11-20 21:00:00 3.6 18 Noroeste 22 Noroeste 0 768 0.9 43
2018-11-20 20:00:00 5.6 12 Oeste 18 Noroeste 0 767.8 0.7 20
2018-11-20 19:00:00 5.9 10 Oeste 13 Noroeste 0 767.2 0 33
2018-11-20 18:00:00 6.9 7 Oeste 12 Noroeste 0 767.1 -0.2 49
2018-11-20 17:00:00 8.9 2 Sudoeste 11 Noroeste 0 767.1 -0.5 54
2018-11-20 16:00:00 9 5 Norte 15 Norte 0 767.2 -0.8 76
2018-11-20 15:00:00 8.3 8 Noroeste 16 Norte 0 767.3 -1.1 73
2018-11-20 14:00:00 8.3 9 Noroeste 16 Noroeste 0 767.6 -1 71
2018-11-20 13:00:00 7.6 9 Norte 14 Norte 0 768 -0.2 75
2018-11-20 12:00:00 7.2 12 Noroeste 15 Norte 0 768.4 0.9 78
2018-11-20 11:00:00 7 6 Norte 14 Norte 0 768.6 1.7 40
2018-11-20 10:00:00 6.1 7 Nordeste 22 Norte 0 768.2 1.8 53
2018-11-20 09:00:00 3.9 16 Norte 26 Norte 0 767.5 1.6 40
2018-11-20 08:00:00 2.9 20 Norte 30 Norte 0 766.9 1.2 55
2018-11-20 07:00:00 2.1 22 Norte 33 Norte 0 766.4 0.8 69
2018-11-20 06:00:00 1.8 24 Norte 32 Norte 0 765.9 0.4 89
2018-11-20 05:00:00 1.6 26 Noroeste 35 Norte 0 765.7 0.3 100
2018-11-20 04:00:00 1.7 29 Noroeste 36 Noroeste 0 765.6 0.3 100
2018-11-20 03:00:00 1.2 33 Norte 48 Norte 0 765.5 0.1 100
2018-11-20 02:00:00 0.9 41 Norte 54 Norte 0 765.4 0.1 97
2018-11-20 01:00:00 0.9 44 Norte 58 Norte 0 765.3 -0.1 87
2018-11-20 00:00:00 0.9 44 Norte 63 Norte 0 765.4 0.3 52
2018-11-19 23:00:00 1.1 48 Norte 60 Norte 0 765.3 1.1 37
2018-11-19 22:00:00 2.1 48 Norte 60 Norte 0 765.4 2.1 45
2018-11-19 21:00:00 1.8 43 Norte 64 Norte 0 765.1 2.6 29
2018-11-19 20:00:00 0.5 46 Noroeste 69 Noroeste 0 764.2 2 74
2018-11-19 19:00:00 -0.5 48 Noroeste 65 Norte 0 763.3 1.2 100
2018-11-19 18:00:00 0.8 51 Noroeste 67 Noroeste 0 762.5 0.3 100
2018-11-19 17:00:00 1.8 54 Noroeste 62 Noroeste 0 762.2 -0.3 100
2018-11-19 16:00:00 2.8 51 Noroeste 60 Noroeste 0 762.1 -1 100
2018-11-19 15:00:00 3.6 51 Noroeste 58 Noroeste 0 762.2 -1.2 100
2018-11-19 14:00:00 4.1 47 Noroeste 59 Noroeste 0 762.5 -0.7 100
2018-11-19 13:00:00 4.1 45 Noroeste 52 Noroeste 0 763.1 0.3 100
2018-11-19 12:00:00 3.4 40 Noroeste 56 Noroeste 0 763.4 1.1 100
2018-11-19 11:00:00 2.4 51 Noroeste 61 Noroeste 0 763.2 1.5 100
2018-11-19 10:00:00 2.5 54 Noroeste 65 Noroeste 0 762.8 1.6 100
2018-11-19 09:00:00 1.4 47 Noroeste 59 Noroeste 0 762.3 1.8 100
2018-11-19 08:00:00 0.7 47 Noroeste 62 Noroeste 0 761.7 1.5 100
2018-11-19 07:00:00 0.3 46 Noroeste 58 Noroeste 0 761.2 1 100
2018-11-19 06:00:00 -0.2 57 Noroeste 66 Noroeste 0 760.5 0.1 100
2018-11-19 05:00:00 -0.3 57 Noroeste 67 Noroeste 0 760.2 -0.2 100
2018-11-19 04:00:00 -0.3 51 Noroeste 57 Noroeste 0 760.2 -1 100
2018-11-19 03:00:00 -1.9 53 Noroeste 63 Noroeste 0 760.4 -1.6 100
2018-11-19 02:00:00 -0.5 56 Noroeste 60 Noroeste 0 760.4 -1.8 100
2018-11-19 01:00:00 -0.6 45 Noroeste 56 Noroeste 0 761.2 -1.4 100
2018-11-19 00:00:00 -0.7 40 Noroeste 47 Noroeste 0 762 -0.5 100
2018-11-18 23:00:00 -0.1 40 Noroeste 44 Noroeste 0 762.2 0.1 100
2018-11-18 22:00:00 0 37 Noroeste 51 Noroeste 0 762.6 0.5 100
2018-11-18 21:00:00 -0.4 48 Noroeste 61 Noroeste 0 762.5 0.7 100
2018-11-18 20:00:00 0.8 43 Noroeste 52 Noroeste 0.2 762.1 0.2 100
2018-11-18 19:00:00 1.2 48 Noroeste 69 Noroeste 0 762.1 0.1 100
2018-11-18 18:00:00 1.1 40 Noroeste 56 Noroeste 0 761.8 -0.1 100
2018-11-18 17:00:00 1.9 40 Noroeste 49 Noroeste 0 761.9 -0.4 100
2018-11-18 16:00:00 2.7 37 Noroeste 61 Noroeste 0.2 762 -0.5 100
2018-11-18 15:00:00 3 48 Noroeste 63 Noroeste 0.4 761.9 -0.9 100
2018-11-18 14:00:00 3.3 43 Noroeste 62 Noroeste 0.2 762.3 -0.7 100
2018-11-18 13:00:00 2.2 47 Noroeste 59 Noroeste 0 762.5 0 100
2018-11-18 12:00:00 2.2 48 Noroeste 60 Noroeste 0 762.8 1 100
2018-11-18 11:00:00 1.5 44 Noroeste 54 Noroeste 0 763 1.7 100
2018-11-18 10:00:00 0.4 46 Noroeste 55 Noroeste 0 762.5 1.4 100
2018-11-18 09:00:00 -0.5 46 Noroeste 60 Noroeste 0 761.8 1 100
2018-11-18 08:00:00 -1.4 53 Noroeste 57 Noroeste 0 761.3 0.7 100
2018-11-18 07:00:00 -1.1 47 Noroeste 53 Noroeste 0 761.1 0 100
2018-11-18 06:00:00 -0.9 44 Noroeste 57 Noroeste 0 760.8 -0.5 96
2018-11-18 05:00:00 0 49 Noroeste 54 Noroeste 0 760.6 -1.8 100
2018-11-18 04:00:00 0.6 46 Noroeste 60 Noroeste 0 761.1 -1.3 100
2018-11-18 03:00:00 0 46 Noroeste 58 Noroeste 0 761.3 -0.4 96
2018-11-18 02:00:00 0.5 27 Oeste 45 Oeste 0 762.4 0 89
2018-11-18 01:00:00 -0.6 34 Oeste 56 Noroeste 0 762.4 0.3 91
2018-11-18 00:00:00 -0.9 49 Noroeste 58 Noroeste 0 761.7 -0.1 100
2018-11-17 23:00:00 0.1 42 Noroeste 58 Noroeste 0 762.4 1.2 100
2018-11-17 22:00:00 1.2 50 Noroeste 64 Noroeste 0 762.1 2.4 100
2018-11-17 21:00:00 2.3 54 Noroeste 75 Noroeste 0 761.8 2.3 100
2018-11-17 20:00:00 2.2 62 Noroeste 86 Noroeste 0.4 761.2 0.6 100
2018-11-17 19:00:00 2.3 83 Noroeste 96 Noroeste 1 759.7 -1 100
2018-11-17 18:00:00 3.4 84 Noroeste 95 Noroeste 0.8 759.5 -1.1 100
2018-11-17 17:00:00 4.4 65 Noroeste 91 Noroeste 0 760.6 -1.1 100
2018-11-17 16:00:00 5.3 69 Noroeste 94 Norte 0 760.7 -2.1 100
2018-11-17 15:00:00 5.6 69 Noroeste 99 Noroeste 0.2 760.6 -3 100
2018-11-17 14:00:00 6.4 55 Noroeste 67 Noroeste 3.6 761.7 -1.9 100
2018-11-17 13:00:00 7.1 42 Noroeste 80 Noroeste 5.6 762.8 -1.1 100
2018-11-17 12:00:00 8 35 Noroeste 77 Noroeste 0.4 763.6 -0.6 100
2018-11-17 11:00:00 8 53 Noroeste 80 Noroeste 0.4 763.6 0.4 100
2018-11-17 10:00:00 7.3 38 Noroeste 56 Noroeste 0 763.9 0.6 93
2018-11-17 09:00:00 7.8 30 Noroeste 54 Noroeste 0 764.2 1.6 73
2018-11-17 08:00:00 7.9 35 Noroeste 52 Noroeste 0 763.2 0.4 51
2018-11-17 07:00:00 8.3 41 Noroeste 57 Noroeste 0 763.3 0.7 49
2018-11-17 06:00:00 8.2 49 Noroeste 59 Noroeste 0 762.6 -0.5 43
2018-11-17 05:00:00 9.1 46 Noroeste 67 Noroeste 0 762.8 -0.4 11
2018-11-17 04:00:00 7.6 61 Noroeste 80 Noroeste 0 762.6 -1.8 12
2018-11-17 03:00:00 8.1 54 Noroeste 72 Noroeste 0 763.1 -1.4 9
2018-11-17 02:00:00 8 53 Noroeste 61 Noroeste 0 763.2 -1.1 10
2018-11-17 01:00:00 7.8 34 Noroeste 57 Noroeste 0 764.4 0.1 9
2018-11-17 00:00:00 7.2 45 Noroeste 72 Noroeste 0 764.5 -0.2 13
2018-11-16 23:00:00 7.3 59 Noroeste 71 Noroeste 0 764.3 0 13
2018-11-16 22:00:00 5.9 53 Noroeste 71 Noroeste 0 764.3 0.2 25
2018-11-16 21:00:00 5.4 24 Norte 75 Noroeste 0 764.7 1.1 34
2018-11-16 20:00:00 5.9 41 Noroeste 62 Noroeste 0 764.3 0.5 35
2018-11-16 19:00:00 6.1 45 Noroeste 68 Noroeste 0 764.1 0.1 37
2018-11-16 18:00:00 6.7 52 Noroeste 71 Noroeste 0 763.6 -0.8 36
2018-11-16 17:00:00 8.5 53 Noroeste 66 Noroeste 0 763.8 -1.2 35
2018-11-16 16:00:00 8.4 43 Noroeste 64 Noroeste 0 764 -0.8 40
2018-11-16 15:00:00 7.8 48 Noroeste 57 Noroeste 0 764.4 -0.2 33
2018-11-16 14:00:00 7.8 37 Noroeste 57 Noroeste 0 765 0.6 40
2018-11-16 13:00:00 6.2 44 Noroeste 61 Noroeste 0 764.8 0.6 43
2018-11-16 12:00:00 4 55 Noroeste 66 Noroeste 0 764.6 0.9 29
2018-11-16 11:00:00 4 54 Noroeste 61 Noroeste 0 764.4 1.4 27
2018-11-16 10:00:00 3.3 50 Noroeste 60 Noroeste 0 764.2 1.2 25
2018-11-16 09:00:00 2 54 Noroeste 65 Noroeste 0 763.7 1.1 27
2018-11-16 08:00:00 1.2 59 Noroeste 68 Noroeste 0 763 0.3 32
2018-11-16 07:00:00 0.8 59 Noroeste 71 Noroeste 0 763 0.3 50
2018-11-16 06:00:00 0.2 51 Noroeste 61 Noroeste 0 762.6 -0.6 63
2018-11-16 05:00:00 -0.5 51 Noroeste 62 Noroeste 0 762.7 -0.6 82
2018-11-16 04:00:00 -0.1 53 Noroeste 61 Noroeste 0 762.7 -1.3 100
2018-11-16 03:00:00 -1.3 45 Noroeste 55 Noroeste 0 763.2 -1.2 86
2018-11-16 02:00:00 0.4 49 Noroeste 55 Noroeste 0 763.3 -1.3 35
2018-11-16 01:00:00 0.1 38 Noroeste 45 Noroeste 0 764 -0.7 41
2018-11-16 00:00:00 1.3 31 Noroeste 47 Noroeste 0 764.4 0.2 33
2018-11-15 23:00:00 3.3 40 Noroeste 49 Noroeste 0 764.6 1 18
2018-11-15 22:00:00 2.4 37 Noroeste 55 Noroeste 0 764.7 1.4 28
2018-11-15 21:00:00 3.5 52 Noroeste 76 Noroeste 0 764.2 1 21
2018-11-15 20:00:00 2.2 56 Noroeste 73 Noroeste 0 763.6 0.5 35
2018-11-15 19:00:00 0.8 53 Noroeste 73 Noroeste 0 763.3 0.1 82
2018-11-15 18:00:00 1.4 50 Noroeste 73 Noroeste 0 763.2 0 99
2018-11-15 17:00:00 2.7 55 Noroeste 73 Noroeste 0 763.1 -0.4 100
2018-11-15 16:00:00 4.1 60 Noroeste 90 Noroeste 0 763.2 -0.9 100
2018-11-15 15:00:00 4.8 73 Noroeste 96 Noroeste 0 763.2 -1.9 100
2018-11-15 14:00:00 5.4 77 Noroeste 97 Noroeste 0 763.5 -2.1 100
2018-11-15 13:00:00 5.2 72 Noroeste 82 Noroeste 0.2 764.1 -0.9 100
2018-11-15 12:00:00 5.2 58 Noroeste 66 Noroeste 0.4 765.1 0.3 100
2018-11-15 11:00:00 5.2 56 Noroeste 71 Noroeste 1.2 765.6 1.1 100
2018-11-15 10:00:00 4.6 69 Noroeste 91 Noroeste 0.4 765 0.4 100
2018-11-15 09:00:00 3.2 63 Noroeste 75 Noroeste 0 764.8 0.1 100
2018-11-15 08:00:00 2 63 Noroeste 72 Noroeste 0 764.5 -0.2 58
2018-11-15 07:00:00 2.2 54 Noroeste 62 Noroeste 0 764.6 -0.3 63
2018-11-15 06:00:00 5.1 42 Noroeste 47 Noroeste 0 764.7 0.2 41
2018-11-15 05:00:00 3.7 28 Noroeste 39 Noroeste 0 764.7 -0.4 37
2018-11-15 04:00:00 2.9 34 Noroeste 61 Noroeste 0 764.9 -0.3 62
2018-11-15 03:00:00 2.8 56 Noroeste 62 Noroeste 0 764.5 -1.3 57
2018-11-15 02:00:00 2.9 41 Noroeste 51 Noroeste 0 765.1 -0.9 60
2018-11-15 01:00:00 1.9 47 Noroeste 61 Noroeste 0 765.2 -0.8 71
2018-11-15 00:00:00 2.1 41 Noroeste 54 Noroeste 0 765.8 0.4 71
2018-11-14 23:00:00 3.1 45 Noroeste 50 Noroeste 0 766 0.5 68
2018-11-14 22:00:00 3.1 43 Noroeste 65 Noroeste 0 766 0.5 65
2018-11-14 21:00:00 3.5 57 Noroeste 65 Norte 0 765.4 0.5 62
2018-11-14 20:00:00 3.1 39 Noroeste 48 Noroeste 0 765.5 0.7 59
2018-11-14 19:00:00 2 24 Noroeste 42 Noroeste 0 765.5 0.2 97
2018-11-14 18:00:00 1.5 36 Noroeste 52 Norte 0 764.9 -0.2 100
2018-11-14 17:00:00 2 43 Noroeste 51 Noroeste 0 764.8 -0.9 100
2018-11-14 16:00:00 3.4 31 Noroeste 44 Noroeste 0 765.3 -0.9 97
2018-11-14 15:00:00 3.6 31 Noroeste 38 Noroeste 0 765.1 -1.6 98
2018-11-14 14:00:00 6.2 20 Noroeste 27 Noroeste 0 765.7 -1 79
2018-11-14 13:00:00 6.8 19 Norte 28 Norte 0 766.2 -0.4 74
2018-11-14 12:00:00 5.9 20 Norte 36 Norte 0 766.7 0.5 79
2018-11-14 11:00:00 3.7 21 Noroeste 31 Norte 0 766.7 0.9 85
2018-11-14 10:00:00 4.7 27 Norte 44 Norte 0 766.6 1 41
2018-11-14 09:00:00 2.5 28 Norte 48 Norte 0 766.2 0.9 66
2018-11-14 08:00:00 1.4 32 Norte 45 Norte 0 765.8 0.4 74
2018-11-14 07:00:00 0.3 27 Norte 47 Norte 0 765.6 -0.1 87
2018-11-14 06:00:00 -0.4 25 Norte 42 Norte 0 765.3 -0.4 100
2018-11-14 05:00:00 -1.1 27 Norte 39 Norte 0 765.4 -0.8 100
2018-11-14 04:00:00 0.1 26 Noroeste 37 Norte 0 765.7 -0.8 100
2018-11-14 03:00:00 0.9 30 Norte 36 Norte 0 765.7 -1.3 100
2018-11-14 02:00:00 1.1 24 Noroeste 34 Norte 0 766.2 -1.3 100
2018-11-14 01:00:00 1.2 31 Noroeste 43 Norte 0 766.5 -1.3 100
2018-11-14 00:00:00 0.9 27 Norte 37 Norte 0 767 -0.6 100
2018-11-13 23:00:00 1.5 24 Noroeste 40 Norte 0 767.5 0.2 100
2018-11-13 22:00:00 1.5 31 Norte 40 Norte 0 767.8 1.2 100
2018-11-13 21:00:00 1.3 31 Noroeste 46 Norte 0 767.6 1 100
2018-11-13 20:00:00 0.9 31 Norte 49 Norte 0 767.3 0.6 100
2018-11-13 19:00:00 1.8 42 Norte 58 Norte 0 766.6 -0.1 100
2018-11-13 18:00:00 1.5 35 Norte 45 Noroeste 0 766.6 0 100
2018-11-13 17:00:00 2.1 33 Norte 45 Norte 0 766.7 -0.1 100
2018-11-13 16:00:00 2.3 35 Noroeste 50 Norte 0 766.7 -0.3 100
2018-11-13 15:00:00 3.6 39 Noroeste 57 Noroeste 0 766.6 -0.9 100
2018-11-13 14:00:00 2.9 47 Noroeste 58 Noroeste 0 766.8 -0.7 100
2018-11-13 13:00:00 3.1 44 Norte 52 Noroeste 0 767 -0.9 100
2018-11-13 12:00:00 3.2 40 Norte 51 Norte 0 767.5 0.4 100
2018-11-13 11:00:00 2.9 50 Noroeste 62 Norte 0 767.5 0.7 100
2018-11-13 10:00:00 2.1 45 Norte 61 Norte 0 767.9 1.5 100
2018-11-13 09:00:00 0.3 52 Norte 63 Norte 0 767.1 1.2 100
2018-11-13 08:00:00 1.4 53 Norte 66 Norte 0 766.8 0.3 100
2018-11-13 07:00:00 0.8 48 Norte 67 Noroeste 0.2 766.4 -0.1 100
2018-11-13 06:00:00 0 54 Norte 66 Norte 0 765.9 -0.2 100
2018-11-13 05:00:00 1 45 Noroeste 62 Norte 0 766.5 0.2 100
2018-11-13 04:00:00 0.7 49 Norte 63 Norte 0 766.5 0.1 100
2018-11-13 03:00:00 1.5 54 Norte 76 Norte 0 766.1 -0.4 100
2018-11-13 02:00:00 0.4 54 Norte 76 Norte 0 766.3 -0.2 100
2018-11-13 01:00:00 0.9 57 Norte 79 Norte 0 766.4 -0.3 100
2018-11-13 00:00:00 1.1 63 Norte 87 Norte 0 766.5 0.9 100
2018-11-12 23:00:00 1.4 66 Noroeste 84 Noroeste 0.2 766.5 0.4 100
2018-11-12 22:00:00 1.9 66 Norte 88 Norte 0 766.7 -0.7 100
2018-11-12 21:00:00 1.6 75 Norte 87 Norte 0.2 765.6 -1.5 100
2018-11-12 20:00:00 1 63 Noroeste 75 Noroeste 0.2 766.1 -0.1 100
2018-11-12 19:00:00 0 26 Noroeste 41 Norte 0 767.4 1.1 100
2018-11-12 18:00:00 2.4 36 Norte 63 Norte 0 767.1 1.1 100
2018-11-12 17:00:00 3.5 57 Noroeste 67 Noroeste 0.2 766.2 -0.6 100
2018-11-12 16:00:00 3.6 49 Noroeste 67 Noroeste 0.2 766.3 -0.7 100
2018-11-12 15:00:00 4.3 58 Noroeste 68 Noroeste 0.4 766 -1.4 100
2018-11-12 14:00:00 5.1 53 Noroeste 65 Noroeste 1.2 766.8 -1.2 100
2018-11-12 13:00:00 5.5 58 Noroeste 68 Noroeste 1.2 767 -0.8 100
2018-11-12 12:00:00 5 57 Noroeste 67 Noroeste 2 767.4 -0.4 100
2018-11-12 11:00:00 5.6 51 Norte 72 Noroeste 2.2 768 0.2 100
2018-11-12 10:00:00 5.4 57 Norte 71 Norte 2.2 767.8 0.5 100
2018-11-12 09:00:00 5.2 53 Noroeste 58 Noroeste 1.4 767.8 0.4 100
2018-11-12 08:00:00 5.1 35 Noroeste 51 Noroeste 1.4 767.8 0.6 100
2018-11-12 07:00:00 5 42 Noroeste 51 Noroeste 1.2 767.3 -0.2 100
2018-11-12 06:00:00 5.9 31 Noroeste 37 Noroeste 0 767.4 -0.4 99
2018-11-12 05:00:00 4.5 32 Noroeste 37 Noroeste 0 767.2 -0.7 71
2018-11-12 04:00:00 6 29 Noroeste 35 Noroeste 0 767.5 -0.4 28
2018-11-12 03:00:00 4.8 29 Noroeste 41 Noroeste 0 767.8 -0.5 41
2018-11-12 02:00:00 5 41 Noroeste 53 Noroeste 0 767.9 -0.7 40
2018-11-12 01:00:00 5.4 46 Noroeste 57 Noroeste 0 767.9 -0.7 39
2018-11-12 00:00:00 5.8 50 Noroeste 57 Noroeste 0 768.3 -0.2 38
2018-11-11 23:00:00 6 48 Noroeste 55 Noroeste 0 768.6 0.5 38
2018-11-11 22:00:00 5.6 47 Noroeste 54 Noroeste 0 768.6 0.6 39
2018-11-11 21:00:00 5.1 39 Noroeste 43 Noroeste 0 768.5 0.8 41
2018-11-11 20:00:00 6.3 37 Noroeste 42 Noroeste 0 768.1 0.2 30
2018-11-11 19:00:00 6.4 28 Noroeste 39 Noroeste 0 768 0 29
2018-11-11 18:00:00 7 33 Noroeste 48 Noroeste 0 767.7 -0.2 45
2018-11-11 17:00:00 8.3 42 Noroeste 54 Noroeste 0 767.9 -0.6 45
2018-11-11 16:00:00 10.3 40 Noroeste 57 Noroeste 0 768 -1 39
2018-11-11 15:00:00 10.8 45 Noroeste 60 Norte 0 767.9 -1.7 39
2018-11-11 14:00:00 10.3 21 Noroeste 40 Norte 0 768.5 -1.6 38
2018-11-11 13:00:00 11.5 26 Norte 33 Norte 0 769 -0.9 38
2018-11-11 12:00:00 11.5 24 Noroeste 32 Norte 0 769.6 -0.1 44
2018-11-11 11:00:00 10.7 18 Norte 27 Noroeste 0 770.1 0.7 33
2018-11-11 10:00:00 9.4 18 Noroeste 24 Noroeste 0 769.9 0.8 32
2018-11-11 09:00:00 8.4 13 Norte 16 Norte 0 769.7 0.8 31
2018-11-11 08:00:00 8.3 6 Norte 14 Norte 0 769.4 0.6 15
2018-11-11 07:00:00 8.1 6 Norte 9 Nordeste 0 769.1 0.2 20
2018-11-11 06:00:00 8.2 6 Norte 13 Norte 0 768.9 -0.3 22
2018-11-11 05:00:00 8.2 6 Sudeste 12 Sudeste 0 768.8 -0.8 21
2018-11-11 04:00:00 8.6 8 Sudeste 16 Sudeste 0 768.9 -1.1 28
2018-11-11 03:00:00 8 13 Sudeste 17 Sudeste 0 769.2 -1.3 17
2018-11-11 02:00:00 7 13 Sudeste 21 Sudeste 0 769.6 -1.2 9
2018-11-11 01:00:00 7.3 18 Sudeste 24 Sudeste 0 770 -0.8 25
2018-11-11 00:00:00 7.3 16 Sudeste 20 Este 0 770.5 -0.1 30
2018-11-10 23:00:00 7.4 17 Este 21 Este 0 770.8 0.4 29
2018-11-10 22:00:00 7.6 16 Este 26 Este 0 770.8 0.7 31
2018-11-10 21:00:00 8.2 20 Nordeste 25 Nordeste 0 770.6 0.6 29
2018-11-10 20:00:00 8.4 19 Nordeste 25 Nordeste 0 770.4 0.3 24
2018-11-10 19:00:00 8.4 14 Nordeste 22 Nordeste 0 770.1 -0.1 13
2018-11-10 18:00:00 9.4 15 Nordeste 25 Nordeste 0 770 -0.5 9
2018-11-10 17:00:00 11.3 19 Norte 26 Norte 0 770.1 -0.6 14
2018-11-10 16:00:00 12.3 17 Norte 24 Norte 0 770.2 -0.9 17
2018-11-10 15:00:00 12.8 9 Nordeste 20 Sudeste 0 770.5 -1.2 15
2018-11-10 14:00:00 12.5 11 Sudeste 18 Este 0 770.7 -1.3 15
2018-11-10 13:00:00 13.4 10 Este 18 Sudeste 0 771.1 -0.9 11
2018-11-10 12:00:00 14.3 9 Este 16 Este 0 771.7 0 16
2018-11-10 11:00:00 13.7 9 Este 15 Este 0 772 0.6 13
2018-11-10 10:00:00 12.6 9 Este 17 Nordeste 0 772 0.9 10
2018-11-10 09:00:00 10.5 12 Este 18 Nordeste 0 771.7 0.5 4
2018-11-10 08:00:00 8.9 15 Nordeste 21 Nordeste 0 771.4 0.2 2
2018-11-10 07:00:00 9 12 Nordeste 16 Este 0 771.1 -0.2 2
2018-11-10 06:00:00 9.3 15 Este 19 Este 0 771.2 -0.3 4
2018-11-10 05:00:00 9.3 14 Este 17 Este 0 771.2 -0.5 --
2018-11-10 04:00:00 9 13 Este 18 Este 0 771.3 -0.8 --
2018-11-10 03:00:00 8.3 14 Sudeste 19 Sudeste 0 771.5 -0.9 --
2018-11-10 02:00:00 8.2 11 Este 15 Sudeste 0 771.7 -0.9 --
2018-11-10 01:00:00 8.1 14 Este 22 Este 0 772.1 -0.5 --
2018-11-10 00:00:00 9 13 Este 23 Nordeste 0 772.4 0.1 --